Latest Weather Observations for Gold Coast Seaway

IDQ60901

Issued at 7:12 pm EST Friday 30 January 2015 (issued every 10 minutes, with the page automatically refreshed every 10 minutes)

About weather observations | Map of Brisbane area stations | Latest observations for Brisbane area | Other Formats
Station Details ID: 040764 Name: GOLD COAST SEAWAY Lat: -27.94 Lon: 153.43 Height: 2.98 m
Data from the previous 72 hours. | See also: Recent months at Gold Coast Seaway
Date/Time
EST
Tmp

°C
App
Tmp
°C
Dew
Point
°C
Rel
Hum
%
Delta-T

°C
Wind Press
QNH
hPa
Press
MSL
hPa
Rain
since
9 am
mm
Dir
 
Spd
km/h
Gust
km/h
Spd
kts
Gust
kts
30/07:00pm 24.9 22.2 19.3 71 3.6 N 32 37 17 20 1006.9 1006.9 0.0
30/06:30pm 24.9 21.7 18.6 68 4.0 N 33 39 18 21 1006.6 1006.6 0.0
30/06:00pm 25.4 22.3 18.8 67 4.2 NNE 33 37 18 20 1006.3 1006.3 0.0
30/05:30pm 26.0 22.8 18.7 64 4.7 NNE 33 39 18 21 1006.0 1006.0 0.0
30/05:00pm 26.4 23.4 19.0 63 4.8 NNE 33 37 18 20 1005.9 1005.9 0.0
30/04:30pm 26.7 22.9 18.0 59 5.5 NNE 35 39 19 21 1005.7 1005.7 0.0
30/04:00pm 27.1 24.0 18.9 61 5.3 NNE 33 37 18 20 1005.7 1005.7 0.0
30/03:30pm 27.3 23.8 18.0 56 5.9 NNE 33 37 18 20 1006.1 1006.1 0.0
30/03:00pm 27.6 24.5 18.3 57 5.9 NNE 32 35 17 19 1006.4 1006.4 0.0
30/02:30pm 28.4 25.6 18.2 54 6.5 NNE 30 35 16 19 1006.6 1006.6 0.0
30/02:00pm 28.5 26.5 18.3 54 6.5 NNE 26 30 14 16 1007.0 1007.0 0.0
30/01:30pm 28.2 27.1 18.6 56 6.2 NE 22 28 12 15 1007.4 1007.4 0.0
30/01:00pm 27.8 27.0 18.5 57 6.0 NE 20 26 11 14 1007.8 1007.8 0.0
30/12:30pm 28.3 28.3 19.0 57 6.0 NE 17 22 9 12 1008.2 1008.2 0.0
30/12:00pm 28.2 28.8 18.6 56 6.2 ESE 13 17 7 9 1008.6 1008.6 0.0
30/11:30am 28.1 28.5 18.2 55 6.3 ESE 13 15 7 8 1008.9 1008.9 0.0
30/11:00am 27.6 28.5 17.5 54 6.4 ESE 9 13 5 7 1009.1 1009.1 0.0
30/10:30am 27.2 27.8 16.8 53 6.5 ESE 9 11 5 6 1009.5 1009.5 0.0
30/10:00am 27.1 28.4 17.6 56 6.0 SSW 7 9 4 5 1009.7 1009.7 0.0
30/09:30am 27.3 28.0 16.0 50 6.9 SSW 7 7 4 4 1009.6 1009.6 0.0
30/09:00am 26.7 27.9 16.9 55 6.1 SSW 6 7 3 4 1009.7 1009.7 0.0
30/08:30am 26.2 28.2 17.0 57 5.7 SSW 2 7 1 4 1009.6 1009.6 0.0
30/08:00am 24.8 25.5 16.2 58 5.3 SSW 7 11 4 6 1009.6 1009.6 0.0
30/07:30am 23.8 24.3 16.6 64 4.4 SSW 9 13 5 7 1009.5 1009.5 0.0
30/07:00am 22.5 23.0 16.5 69 3.7 SSW 9 11 5 6 1009.5 1009.5 0.0
30/06:30am 21.6 22.3 17.0 75 2.8 SSW 9 13 5 7 1009.3 1009.3 0.0
30/05:30am 20.4 21.2 17.4 83 1.8 SSW 9 11 5 6 1008.9 1008.9 0.0
30/05:00am 20.2 20.9 17.0 82 1.9 SSW 9 13 5 7 1008.7 1008.7 0.0
30/04:30am 20.5 21.0 17.5 83 1.8 SSW 11 13 6 7 1008.6 1008.6 0.0
30/04:00am 20.3 21.2 17.5 84 1.7 SSW 9 13 5 7 1008.7 1008.7 0.0
30/03:30am 19.9 19.9 17.3 85 1.6 SSW 13 19 7 10 1008.8 1008.8 0.0
30/03:00am 20.0 20.4 17.2 84 1.7 SSW 11 13 6 7 1008.7 1008.7 0.0
30/02:30am 20.2 20.6 17.2 83 1.8 SSW 11 15 6 8 1009.0 1009.0 0.0
30/02:00am 20.7 20.1 17.5 82 2.0 SSW 17 26 9 14 1009.2 1009.2 0.0
30/01:30am 21.1 17.6 17.5 80 2.2 S 32 39 17 21 1009.4 1009.4 0.0
30/01:00am 21.3 19.2 17.1 77 2.6 SSW 24 32 13 17 1009.5 1009.5 0.0
30/12:30am 22.1 21.6 16.8 72 3.2 SSW 15 26 8 14 1009.7 1009.7 0.0
30/12:00am 22.8 19.7 17.5 72 3.3 S 30 37 16 20 1009.7 1009.7 0.0
 
Date/Time
EST
Tmp

°C
App
Tmp
°C
Dew
Point
°C
Rel
Hum
%
Delta-T

°C
Wind Press
QNH
hPa
Press
MSL
hPa
Rain
since
9 am
mm
Dir
 
Spd
km/h
Gust
km/h
Spd
kts
Gust
kts
29/11:30pm 22.9 19.2 16.9 69 3.7 S 32 37 17 20 1009.9 1009.9 0.0
29/11:00pm 23.6 20.0 17.6 69 3.7 S 33 43 18 23 1010.1 1010.1 0.0
29/10:30pm 23.9 20.5 17.6 68 3.9 SSE 32 39 17 21 1010.0 1010.0 0.0
29/10:00pm 23.8 20.0 17.3 67 4.0 SSE 33 41 18 22 1009.9 1009.9 0.0
29/09:30pm 24.2 20.8 17.7 67 4.1 SSE 32 37 17 20 1010.1 1010.1 0.0
29/09:00pm 24.2 20.9 17.9 68 3.9 SSE 32 37 17 20 1009.8 1009.8 0.0
29/08:30pm 24.3 20.9 17.8 67 4.1 SE 32 37 17 20 1009.5 1009.5 0.0
29/08:00pm 24.4 21.3 17.6 66 4.2 SSE 30 37 16 20 1009.3 1009.3 0.0
29/07:30pm 24.3 20.9 17.8 67 4.1 SE 32 37 17 20 1009.1 1009.1 0.0
29/07:00pm 24.4 21.6 18.1 68 4.0 SSE 30 35 16 19 1008.9 1008.9 0.0
29/06:30pm 24.3 21.0 17.1 64 4.5 SE 30 35 16 19 1008.4 1008.4 0.0
29/06:00pm 24.9 21.5 17.6 64 4.6 SE 32 39 17 21 1008.0 1008.0 0.0
29/05:30pm 25.5 22.1 17.7 62 4.9 SSE 32 37 17 20 1007.6 1007.6 0.0
29/05:00pm 25.8 21.5 16.9 58 5.5 SE 35 41 19 22 1007.2 1007.2 0.0
29/04:30pm 26.2 22.1 17.3 58 5.6 SE 35 41 19 22 1006.9 1006.9 0.0
29/04:00pm 25.2 21.7 17.4 62 4.9 SE 32 39 17 21 1006.8 1006.8 0.0
29/03:30pm 26.4 22.4 17.7 58 5.5 SE 35 41 19 22 1007.1 1007.1 0.0
29/03:00pm 25.5 20.8 17.7 62 4.9 SE 39 43 21 23 1007.1 1007.1 0.0
29/02:30pm 26.0 21.0 17.1 58 5.5 SE 39 48 21 26 1007.1 1007.1 0.0
29/02:00pm 26.8 22.6 18.1 59 5.5 SE 37 43 20 23 1007.3 1007.3 0.0
29/01:30pm 27.8 23.9 18.8 58 5.8 SE 37 43 20 23 1007.3 1007.3 0.0
29/01:00pm 26.8 22.8 18.4 60 5.4 SE 37 41 20 22 1007.6 1007.6 0.0
29/12:30pm 27.5 23.3 18.8 59 5.6 SE 39 44 21 24 1007.8 1007.8 0.0
29/12:00pm 28.2 24.6 18.6 56 6.2 SE 35 46 19 25 1008.2 1008.2 0.0
29/11:30am 29.1 25.9 17.3 49 7.4 SSE 30 35 16 19 1008.5 1008.5 0.0
29/11:00am 27.4 24.5 16.1 50 7.0 SSE 26 32 14 17 1008.8 1008.8 0.0
29/10:30am 27.2 23.7 16.5 52 6.6 S 30 37 16 20 1008.9 1008.9 0.0
29/10:00am 26.8 22.6 15.8 51 6.7 S 32 39 17 21 1008.9 1008.9 0.0
29/09:30am 26.3 22.3 16.3 54 6.2 S 32 39 17 21 1008.7 1008.7 0.0
29/09:00am 25.5 20.8 15.8 55 5.9 S 35 43 19 23 1008.8 1008.8 0.0
29/08:30am 24.6 20.4 15.8 58 5.3 S 32 41 17 22 1008.6 1008.6 0.0
29/08:00am 23.7 19.3 15.2 59 5.1 S 32 43 17 23 1008.5 1008.5 0.0
29/07:30am 23.1 19.4 14.9 60 4.9 S 28 35 15 19 1008.4 1008.4 0.0
29/07:00am 22.3 19.2 14.4 61 4.6 S 24 30 13 16 1008.3 1008.3 0.0
29/06:30am 21.7 19.1 13.9 61 4.5 S 20 30 11 16 1008.1 1008.1 0.0
29/06:00am 21.5 18.9 13.7 61 4.5 SSW 20 35 11 19 1007.7 1007.7 0.0
29/05:30am 21.3 19.7 14.0 63 4.2 SSW 15 22 8 12 1007.6 1007.6 0.0
29/05:00am 21.4 20.3 14.3 64 4.2 SSW 13 22 7 12 1007.3 1007.3 0.0
29/04:30am 21.3 19.0 14.0 63 4.2 S 19 28 10 15 1006.9 1006.9 0.0
29/04:00am 21.1 20.4 14.3 65 4.0 SSW 11 13 6 7 1006.7 1006.7 0.0
29/03:30am 21.5 20.4 14.4 64 4.2 SSW 13 20 7 11 1006.8 1006.8 0.0
29/03:00am 21.4 20.1 14.8 66 3.9 SSW 15 22 8 12 1006.4 1006.4 0.0
29/02:30am 21.5 18.5 14.9 66 3.9 S 24 35 13 19 1006.6 1006.6 0.0
29/02:00am 21.6 18.7 15.2 67 3.8 S 24 35 13 19 1006.8 1006.8 0.0
29/01:30am 21.4 19.4 15.5 69 3.5 S 20 32 11 17 1006.7 1006.7 0.0
29/01:00am 21.2 17.7 15.5 70 3.4 S 28 41 15 22 1007.0 1007.0 0.0
29/12:30am 22.2 20.4 15.5 66 4.0 SSW 19 30 10 16 1007.1 1007.1 0.0
29/12:00am 22.1 18.6 15.5 66 4.0 S 28 37 15 20 1007.5 1007.5 0.0
 
Date/Time
EST
Tmp

°C
App
Tmp
°C
Dew
Point
°C
Rel
Hum
%
Delta-T

°C
Wind Press
QNH
hPa
Press
MSL
hPa
Rain
since
9 am
mm
Dir
 
Spd
km/h
Gust
km/h
Spd
kts
Gust
kts
28/11:30pm 22.2 19.2 15.8 67 3.8 S 26 41 14 22 1007.7 1007.7 0.0
28/11:00pm 22.2 18.8 15.8 67 3.9 S 28 35 15 19 1007.9 1007.9 0.0
28/10:30pm 22.1 19.5 15.9 68 3.7 S 24 35 13 19 1007.9 1007.9 0.0
28/10:00pm 21.9 19.3 16.0 69 3.6 S 24 35 13 19 1007.7 1007.7 0.0
28/09:30pm 21.9 19.0 16.2 70 3.4 S 26 35 14 19 1007.9 1007.9 0.0
28/09:00pm 22.0 18.7 16.1 69 3.6 S 28 35 15 19 1007.8 1007.8 0.0
28/08:30pm 22.2 19.0 16.2 69 3.6 S 28 37 15 20 1007.7 1007.7 0.0
28/08:00pm 22.1 18.0 16.4 70 3.5 S 33 44 18 24 1007.6 1007.6 0.0
28/07:30pm 22.1 19.6 16.1 69 3.6 S 24 37 13 20 1007.4 1007.4 0.0
28/07:00pm 22.3 18.3 16.1 68 3.8 S 32 43 17 23 1007.3 1007.3 0.0
28/06:30pm 22.7 18.5 16.3 67 3.9 S 33 46 18 25 1007.1 1007.1 0.0
28/06:00pm 23.2 19.8 16.7 67 4.0 S 30 41 16 22 1006.6 1006.6 0.0
28/05:30pm 24.1 21.0 16.6 63 4.6 S 28 35 15 19 1006.3 1006.3 0.0
28/05:00pm 25.0 21.6 17.7 64 4.6 S 32 41 17 22 1006.1 1006.1 0.0
28/04:30pm 25.5 21.9 17.2 60 5.2 S 32 41 17 22 1005.8 1005.8 0.0
28/04:00pm 25.6 21.9 17.5 61 5.1 S 33 41 18 22 1005.6 1005.6 0.0
28/03:30pm 24.0 19.1 17.3 66 4.2 S 39 61 21 33 1005.9 1005.9 0.0
28/03:25pm 24.8 21.8 18.7 69 3.9 S 32 50 17 27 1005.9 1005.9 0.0
28/03:00pm 24.6 22.1 17.1 63 4.7 S 26 35 14 19 1006.0 1006.0 0.0
28/02:30pm 25.0 21.7 17.0 61 5.0 S 30 41 16 22 1006.1 1006.1 0.0
28/02:00pm 24.9 19.8 17.6 64 4.6 S 41 54 22 29 1006.4 1006.4 0.0
28/01:30pm 25.5 20.6 18.2 64 4.6 S 41 52 22 28 1006.3 1006.3 0.0
28/01:00pm 26.3 21.5 19.2 65 4.6 S 43 54 23 29 1006.2 1006.2 0.0
28/12:30pm 26.3 21.4 18.2 61 5.1 S 41 50 22 27 1006.1 1006.1 0.0
28/12:00pm 27.4 23.3 19.2 61 5.3 S 39 48 21 26 1006.0 1006.0 0.0
28/11:30am 27.1 23.3 18.1 58 5.7 S 35 44 19 24 1006.2 1006.2 0.0
28/11:00am 25.1 21.3 18.1 65 4.4 S 35 46 19 25 1006.4 1006.4 0.0
28/10:43am 24.3 20.9 17.8 67 4.1 S 32 50 17 27 1006.4 1006.4 0.0
28/10:30am 24.2 20.6 17.7 67 4.1 S 33 39 18 21 1006.2 1006.2 0.0
28/10:00am 23.5 19.7 17.3 68 3.8 S 33 44 18 24 1006.4 1006.4 0.0
28/09:30am 22.4 20.1 17.5 74 3.0 S 26 35 14 19 1006.7 1006.7 0.0
28/09:00am 22.2 19.3 18.0 77 2.6 S 30 44 16 24 1006.8 1006.8 0.8
28/08:30am 22.2 19.5 17.6 75 2.8 S 28 35 15 19 1006.3 1006.3 0.6
28/08:00am 22.0 20.5 17.8 77 2.6 S 22 33 12 18 1006.2 1006.2 0.6
28/07:30am 21.7 20.9 18.5 82 2.0 S 20 30 11 16 1006.0 1006.0 0.6
28/07:00am 21.1 20.2 18.1 83 1.9 S 20 30 11 16 1005.9 1005.9 0.6
28/06:30am 21.1 19.1 17.5 80 2.2 S 24 32 13 17 1005.7 1005.7 0.4
28/06:00am 21.5 19.8 17.1 76 2.7 S 22 32 12 17 1005.5 1005.5 0.2
28/05:30am 21.5 20.2 16.7 74 2.9 S 19 28 10 15 1005.3 1005.3 0.2
28/05:00am 21.5 19.2 16.7 74 2.9 S 24 33 13 18 1005.0 1005.0 0.2
28/04:30am 21.4 19.1 16.6 74 2.9 S 24 37 13 20 1005.0 1005.0 0.2
28/04:00am 21.4 17.9 16.4 73 3.0 S 30 37 16 20 1005.0 1005.0 0.2
28/03:30am 21.6 17.7 17.0 75 2.8 S 33 44 18 24 1005.2 1005.2 0.2
28/03:00am 21.9 18.9 17.7 77 2.6 S 30 44 16 24 1005.3 1005.3 0.2
28/02:30am 21.7 18.0 16.9 74 2.9 S 32 43 17 23 1005.3 1005.3 0.2
28/02:00am 21.8 18.3 17.4 76 2.7 S 32 44 17 24 1005.8 1005.8 0.2
28/01:30am 21.6 17.7 17.0 75 2.8 S 33 46 18 25 1006.4 1006.4 0.2
28/01:00am 21.5 18.3 17.3 77 2.6 S 30 41 16 22 1006.9 1006.9 0.2
28/12:30am 21.8 18.8 17.8 78 2.5 S 30 41 16 22 1007.2 1007.2 0.2
28/12:00am 21.8 18.5 18.4 81 2.1 S 33 46 18 25 1007.3 1007.3 0.2
 
Date/Time
EST
Tmp

°C
App
Tmp
°C
Dew
Point
°C
Rel
Hum
%
Delta-T

°C
Wind Press
QNH
hPa
Press
MSL
hPa
Rain
since
9 am
mm
Dir
 
Spd
km/h
Gust
km/h
Spd
kts
Gust
kts
27/11:30pm 22.9 19.4 18.7 77 2.7 S 35 46 19 25 1007.4 1007.4 0.0
27/11:00pm 23.3 20.7 19.5 79 2.4 S 32 39 17 21 1007.2 1007.2 0.0
27/10:30pm 23.9 22.0 19.4 76 2.9 S 28 37 15 20 1007.5 1007.5 0.0
27/10:00pm 25.1 21.2 18.8 68 4.0 SSE 37 46 20 25 1007.5 1007.5 0.0
27/09:30pm 25.0 21.0 18.4 66 4.2 SSE 37 44 20 24 1007.4 1007.4 0.0
27/09:00pm 25.3 22.2 19.7 71 3.6 SE 35 44 19 24 1007.5 1007.5 0.0
27/08:30pm 25.2 22.5 19.6 71 3.6 SE 33 41 18 22 1007.1 1007.1 0.0
27/08:00pm 25.3 22.7 19.9 72 3.5 SE 33 39 18 21 1006.9 1006.9 0.0
27/07:30pm 25.5 22.7 20.3 73 3.4 SE 35 39 19 21 1006.6 1006.6 0.0

Latest Capital City Observations: Canberra | Sydney | Melbourne | Brisbane | Adelaide | Perth | Hobart | Darwin

Other Formats:

Comma delimited format used in spreadsheet applications
http://www.bom.gov.au/fwo/IDQ60901/IDQ60901.94580.axf

JavaScript Object Notation format (JSON) in row-major order
http://www.bom.gov.au/fwo/IDQ60901/IDQ60901.94580.json